Time;durP1;ratioP1;P1;durP2;ratioP2;P2;SDS_P1;SDS_P2;PMS_P1;PMS_P2;Temp;Humidity;BMP_temperature;BMP_pressure;BME280_temperature;BME280_humidity;BME280_pressure;Samples;Min_cycle;Max_cycle;Signal;HPM_P1;HPM_P2
2022/06/03 00:00:20;;;;;;;11.10;10.00;;;12.50;1.00;;;;;;6158375;28;20751;-55
2022/06/03 00:03:45;;;;;;;11.00;10.00;;;12.50;1.00;;;;;;6186734;28;20501;-54
2022/06/03 00:07:08;;;;;;;11.03;10.17;;;12.50;1.00;;;;;;6182228;28;20334;-54
2022/06/03 00:10:48;;;;;;;10.90;10.07;;;12.50;1.00;;;;;;6204029;28;20376;-54
2022/06/03 00:14:13;;;;;;;12.67;11.33;;;12.50;1.00;;;;;;6156734;28;20477;-54
2022/06/03 00:17:33;;;;;;;11.27;10.17;;;12.50;1.00;;;;;;6160999;28;20395;-53
2022/06/03 00:20:47;;;;;;;10.80;9.80;;;12.40;1.00;;;;;;6159307;28;20384;-53
2022/06/03 00:24:08;;;;;;;10.63;9.63;;;12.40;1.00;;;;;;6162179;28;20232;-55
2022/06/03 00:27:44;;;;;;;10.50;9.60;;;12.40;1.00;;;;;;6161046;28;20344;-56
2022/06/03 00:31:02;;;;;;;11.30;10.20;;;12.40;1.00;;;;;;6183593;28;20244;-55
2022/06/03 00:34:16;;;;;;;11.03;9.97;;;12.30;1.00;;;;;;6194117;28;20764;-54
2022/06/03 00:37:30;;;;;;;10.57;9.80;;;12.30;1.00;;;;;;6182253;28;20243;-55
2022/06/03 00:40:49;;;;;;;10.50;9.70;;;12.20;1.00;;;;;;6187083;28;20534;-55
2022/06/03 00:44:10;;;;;;;11.63;10.63;;;12.20;1.00;;;;;;6186060;28;20263;-55
2022/06/03 00:47:30;;;;;;;10.83;9.97;;;12.20;1.00;;;;;;6184029;28;20460;-55
2022/06/03 00:51:08;;;;;;;10.67;9.70;;;12.20;1.00;;;;;;6182244;28;20749;-55
2022/06/03 00:54:35;;;;;;;10.00;9.20;;;12.10;1.00;;;;;;6170586;28;20286;-56
2022/06/03 00:58:12;;;;;;;10.27;9.43;;;12.00;1.00;;;;;;6183610;28;20677;-55
2022/06/03 01:01:26;;;;;;;11.00;10.03;;;12.00;1.00;;;;;;6184815;28;20236;-55
2022/06/03 01:04:45;;;;;;;11.40;10.40;;;12.00;1.00;;;;;;6167219;28;20237;-55
2022/06/03 01:08:01;;;;;;;12.13;11.03;;;12.00;1.00;;;;;;6205688;28;20263;-55
2022/06/03 01:11:19;;;;;;;12.27;11.17;;;12.00;1.00;;;;;;6178161;28;20279;-55
2022/06/03 01:14:32;;;;;;;11.43;10.50;;;11.90;1.00;;;;;;6182701;28;20337;-55
2022/06/03 01:17:45;;;;;;;13.30;12.00;;;11.80;1.00;;;;;;6145072;28;20469;-53
2022/06/03 01:21:03;;;;;;;11.47;10.47;;;11.80;1.00;;;;;;6158501;28;20251;-55
2022/06/03 01:24:50;;;;;;;11.23;10.20;;;11.80;1.00;;;;;;6161094;28;20241;-56
2022/06/03 01:28:23;;;;;;;11.77;10.77;;;11.80;1.00;;;;;;6160150;28;20395;-55
2022/06/03 01:32:19;;;;;;;11.47;10.57;;;11.70;1.00;;;;;;6159556;28;20279;-55
2022/06/03 01:35:42;;;;;;;11.10;10.30;;;11.70;1.00;;;;;;6179607;28;20270;-55
2022/06/03 01:39:09;;;;;;;11.87;10.63;;;11.70;1.00;;;;;;6175303;28;20720;-55
2022/06/03 01:42:52;;;;;;;10.83;9.83;;;11.70;1.00;;;;;;6179855;28;20327;-56
2022/06/03 01:46:16;;;;;;;11.70;10.70;;;11.60;1.00;;;;;;6171410;28;20288;-54
2022/06/03 01:49:59;;;;;;;11.20;10.30;;;11.60;1.00;;;;;;6160285;28;20310;-55
2022/06/03 01:53:23;;;;;;;9.93;9.23;;;11.60;1.00;;;;;;6148027;28;20277;-54
2022/06/03 01:56:48;;;;;;;10.50;9.63;;;11.50;1.00;;;;;;6159443;28;20256;-55
2022/06/03 02:00:19;;;;;;;10.20;9.50;;;11.50;1.00;;;;;;6159929;28;20324;-55
2022/06/03 02:04:08;;;;;;;9.63;8.83;;;11.50;1.00;;;;;;6166734;28;20658;-55
2022/06/03 02:07:36;;;;;;;10.43;9.63;;;11.50;1.00;;;;;;6106282;29;20312;-55
2022/06/03 02:11:06;;;;;;;10.60;9.77;;;11.50;1.00;;;;;;6122704;28;20244;-55
2022/06/03 02:14:44;;;;;;;9.07;8.37;;;11.50;1.00;;;;;;6177852;28;20685;-55
2022/06/03 02:18:29;;;;;;;10.23;9.37;;;11.40;1.00;;;;;;6183073;28;20452;-55
2022/06/03 02:21:57;;;;;;;10.37;9.47;;;11.40;1.00;;;;;;6168790;28;20316;-54
2022/06/03 02:25:29;;;;;;;10.90;9.90;;;11.40;1.00;;;;;;6159831;28;20710;-55
2022/06/03 02:32:47;;;;;;;9.80;9.10;;;11.40;14.00;;;;;;6183443;28;20379;-57
2022/06/03 02:36:22;;;;;;;9.30;8.70;;;11.30;13.90;;;;;;6196854;28;20243;-56
2022/06/03 02:40:06;;;;;;;9.17;8.47;;;11.30;14.00;;;;;;6174289;28;20247;-55
2022/06/03 02:43:32;;;;;;;9.83;9.13;;;11.30;19.80;;;;;;6148897;28;20237;-55
2022/06/03 02:47:14;;;;;;;9.13;8.53;;;11.20;26.20;;;;;;6159857;28;20722;-55
2022/06/03 02:50:59;;;;;;;9.67;8.93;;;11.30;30.80;;;;;;6107032;28;20472;-54
2022/06/03 02:54:33;;;;;;;9.77;8.97;;;11.30;34.70;;;;;;6145951;28;20332;-55
2022/06/03 02:57:47;;;;;;;10.03;9.17;;;11.20;37.50;;;;;;6160239;28;20249;-55
2022/06/03 03:01:08;;;;;;;9.27;8.67;;;11.20;39.80;;;;;;6163150;28;20724;-54
2022/06/03 03:04:33;;;;;;;9.53;8.73;;;11.20;40.90;;;;;;6190484;28;20243;-56
2022/06/03 03:07:47;;;;;;;9.53;8.83;;;11.20;40.80;;;;;;6171696;28;20248;-55
2022/06/03 03:11:13;;;;;;;10.80;9.80;;;11.20;40.70;;;;;;6179130;28;20375;-55
2022/06/03 03:14:40;;;;;;;10.87;9.97;;;11.20;41.60;;;;;;6185894;28;20362;-55
2022/06/03 03:18:04;;;;;;;10.10;9.30;;;11.20;42.30;;;;;;6185593;28;20357;-54
2022/06/03 03:21:35;;;;;;;10.73;9.63;;;11.30;43.90;;;;;;6183606;28;20286;-56
2022/06/03 03:25:26;;;;;;;11.10;10.20;;;11.30;45.60;;;;;;6187318;28;20236;-54
2022/06/03 03:29:04;;;;;;;10.13;9.33;;;11.30;47.90;;;;;;6178141;28;20716;-56
2022/06/03 03:32:20;;;;;;;10.83;9.77;;;11.30;50.90;;;;;;6155309;28;20239;-54
2022/06/03 03:35:51;;;;;;;10.13;9.33;;;11.30;52.90;;;;;;6200012;28;20411;-56
2022/06/03 03:39:36;;;;;;;12.00;11.03;;;11.40;55.70;;;;;;6193109;28;20317;-55
2022/06/03 03:43:26;;;;;;;10.40;9.57;;;11.40;59.80;;;;;;6183246;28;20243;-55
2022/06/03 03:47:17;;;;;;;11.53;10.53;;;11.50;61.10;;;;;;6117408;29;20246;-55
2022/06/03 03:50:56;;;;;;;11.87;10.80;;;11.60;63.80;;;;;;6124068;28;20347;-55
2022/06/03 03:54:43;;;;;;;13.20;11.63;;;11.60;68.80;;;;;;6187195;28;20313;-55
2022/06/03 03:58:24;;;;;;;11.00;10.10;;;11.70;74.30;;;;;;6180038;28;20612;-55
2022/06/03 04:02:06;;;;;;;11.57;10.40;;;11.70;74.40;;;;;;6193719;28;20319;-55
2022/06/03 04:05:39;;;;;;;10.20;9.33;;;11.70;79.80;;;;;;6184700;28;20386;-52
2022/06/03 04:09:21;;;;;;;12.17;10.93;;;11.80;83.60;;;;;;6190344;28;20246;-56
2022/06/03 04:12:40;;;;;;;11.63;10.60;;;11.90;91.20;;;;;;6135868;28;20707;-56
2022/06/03 04:16:09;;;;;;;10.80;9.80;;;11.90;91.50;;;;;;6192941;28;20244;-55
2022/06/03 04:19:34;;;;;;;11.20;10.40;;;12.00;91.20;;;;;;6189224;28;20232;-55
2022/06/03 04:23:16;;;;;;;9.83;9.07;;;12.10;90.00;;;;;;6181292;28;20240;-55
2022/06/03 04:26:45;;;;;;;11.00;10.00;;;12.10;86.30;;;;;;6178042;28;20269;-53
2022/06/03 04:30:09;;;;;;;9.40;8.80;;;12.20;79.90;;;;;;6185853;28;20260;-55
2022/06/03 04:33:51;;;;;;;8.37;7.87;;;12.30;75.10;;;;;;6178157;28;20232;-54
2022/06/03 04:37:32;;;;;;;9.43;8.60;;;12.30;75.10;;;;;;6168256;28;20452;-54
2022/06/03 04:41:09;;;;;;;10.70;9.70;;;12.40;69.90;;;;;;6194754;28;20406;-55
2022/06/03 04:45:03;;;;;;;9.43;8.73;;;12.50;66.10;;;;;;6134135;28;20268;-57
2022/06/03 04:48:32;;;;;;;10.27;9.23;;;12.60;63.60;;;;;;6180782;28;20720;-55
2022/06/03 04:52:13;;;;;;;10.27;9.27;;;12.80;61.00;;;;;;6158451;28;20263;-53
2022/06/03 04:56:10;;;;;;;10.37;9.47;;;13.00;55.60;;;;;;6185399;28;20323;-56
2022/06/03 04:59:49;;;;;;;13.60;9.63;;;13.20;15.30;;;;;;6184557;28;20318;-55
2022/06/03 05:03:23;;;;;;;12.87;9.60;;;13.60;15.60;;;;;;6165793;28;20294;-55
2022/06/03 05:07:14;;;;;;;9.53;8.73;;;14.00;6.80;;;;;;6179586;28;20247;-56
2022/06/03 05:11:22;;;;;;;8.37;7.87;;;14.50;1.00;;;;;;6182937;28;20367;-56
2022/06/03 05:15:05;;;;;;;7.53;7.10;;;15.00;1.00;;;;;;6186085;28;20308;-55
2022/06/03 05:18:40;;;;;;;6.90;6.60;;;15.40;1.00;;;;;;6178832;28;20236;-55
2022/06/03 05:22:13;;;;;;;7.00;6.60;;;15.90;1.00;;;;;;6181458;28;20466;-58
2022/06/03 05:25:48;;;;;;;5.77;5.47;;;16.30;1.00;;;;;;6177992;28;20236;-55
2022/06/03 05:29:20;;;;;;;6.30;5.97;;;16.70;1.00;;;;;;6184871;28;20619;-54
2022/06/03 05:33:08;;;;;;;5.13;4.93;;;17.00;1.00;;;;;;6183310;28;20330;-55
2022/06/03 05:36:46;;;;;;;5.83;4.67;;;17.50;1.00;;;;;;6169743;28;20237;-56
2022/06/03 05:40:13;;;;;;;4.70;4.50;;;17.90;1.00;;;;;;6182416;28;20783;-55
2022/06/03 05:43:45;;;;;;;5.90;5.40;;;18.20;1.00;;;;;;6179362;28;20236;-54
2022/06/03 05:47:00;;;;;;;6.27;4.67;;;18.50;1.00;;;;;;6187339;28;20724;-57
2022/06/03 05:50:08;;;;;;;5.40;5.00;;;18.70;1.00;;;;;;6191932;28;20236;-55
2022/06/03 05:53:24;;;;;;;4.80;4.43;;;19.10;1.00;;;;;;6183549;28;20263;-56
2022/06/03 05:56:48;;;;;;;4.17;4.07;;;19.30;1.00;;;;;;6185339;28;20740;-56
2022/06/03 06:00:13;;;;;;;3.83;3.53;;;19.60;1.00;;;;;;6178096;28;20313;-56
2022/06/03 06:03:35;;;;;;;4.13;3.77;;;19.90;1.00;;;;;;6177199;28;20258;-55
2022/06/03 06:06:52;;;;;;;3.73;3.53;;;20.20;1.00;;;;;;6177968;28;20391;-56
2022/06/03 06:10:02;;;;;;;3.20;3.00;;;20.40;1.00;;;;;;6184705;28;20331;-56
2022/06/03 06:13:24;;;;;;;5.03;3.30;;;20.50;1.00;;;;;;6185160;28;20372;-55
2022/06/03 06:16:33;;;;;;;4.00;3.70;;;20.80;1.00;;;;;;6183430;28;20263;-55
2022/06/03 06:19:46;;;;;;;3.23;3.03;;;21.00;1.00;;;;;;6161165;28;20332;-52
2022/06/03 06:22:51;;;;;;;4.60;3.07;;;21.20;1.00;;;;;;6186723;28;20559;-55
2022/06/03 06:26:27;;;;;;;2.90;2.80;;;21.10;1.00;;;;;;6197476;28;20244;-55
2022/06/03 06:29:58;;;;;;;3.23;3.00;;;21.40;1.00;;;;;;6188641;28;20382;-55
2022/06/03 06:33:28;;;;;;;3.70;3.10;;;21.60;1.00;;;;;;6189244;28;20366;-55
2022/06/03 06:37:05;;;;;;;2.83;2.73;;;21.90;1.00;;;;;;6190898;28;21009;-56
2022/06/03 06:40:17;;;;;;;2.90;2.80;;;22.00;1.00;;;;;;6181470;28;20306;-55
2022/06/03 06:43:38;;;;;;;4.20;3.40;;;22.20;1.00;;;;;;6192379;28;20238;-54
2022/06/03 06:46:57;;;;;;;5.17;3.47;;;22.20;1.00;;;;;;6185518;28;20272;-55
2022/06/03 06:50:14;;;;;;;5.63;3.53;;;22.30;1.00;;;;;;6183373;28;20260;-54
2022/06/03 06:53:27;;;;;;;5.03;3.97;;;22.30;1.00;;;;;;6195362;28;20247;-54
2022/06/03 06:56:38;;;;;;;4.63;2.90;;;22.20;1.00;;;;;;6189747;28;20348;-56
2022/06/03 06:59:47;;;;;;;3.17;2.90;;;22.50;1.00;;;;;;6186771;28;20260;-55
2022/06/03 07:02:54;;;;;;;3.60;3.40;;;22.50;1.00;;;;;;6189280;28;20240;-55
2022/06/03 07:06:04;;;;;;;2.90;2.80;;;22.50;1.00;;;;;;6183232;28;20253;-57
2022/06/03 07:09:34;;;;;;;2.93;2.73;;;22.60;1.00;;;;;;6180592;28;20558;-57
2022/06/03 07:12:42;;;;;;;3.17;3.00;;;22.70;1.00;;;;;;6194445;28;20243;-58
2022/06/03 07:19:47;;;;;;;2.77;2.77;;;22.60;1.00;;;;;;6181754;28;20243;-55
2022/06/03 07:19:53;;;;;;;3.00;2.90;;;22.50;1.00;;;;;;6194915;28;20601;-55
2022/06/03 07:23:03;;;;;;;2.93;2.73;;;22.60;1.00;;;;;;6192146;28;20763;-56
2022/06/03 07:26:15;;;;;;;3.20;3.00;;;22.70;1.00;;;;;;6179116;28;20390;-57
2022/06/03 07:29:24;;;;;;;3.30;3.10;;;22.70;1.00;;;;;;6183533;28;20244;-54
2022/06/03 07:32:31;;;;;;;3.97;2.80;;;22.60;1.00;;;;;;6159120;28;20236;-52
2022/06/03 07:35:43;;;;;;;2.80;2.57;;;22.60;1.00;;;;;;6188271;28;20423;-57
2022/06/03 07:38:53;;;;;;;4.87;2.93;;;22.40;1.00;;;;;;6192258;28;20302;-55
2022/06/03 07:42:05;;;;;;;2.60;2.60;;;22.30;1.00;;;;;;6183878;28;20254;-55
2022/06/03 07:45:36;;;;;;;2.80;2.70;;;22.10;1.00;;;;;;6188547;28;20309;-55
2022/06/03 07:48:40;;;;;;;2.30;2.30;;;21.90;1.00;;;;;;6187951;28;20239;-54
2022/06/03 07:51:48;;;;;;;5.80;2.80;;;21.70;1.00;;;;;;6181403;28;20251;-54
2022/06/03 07:54:55;;;;;;;7.83;6.00;;;21.60;1.00;;;;;;6185458;28;20327;-55
2022/06/03 07:58:05;;;;;;;3.27;2.97;;;21.20;1.00;;;;;;6188454;28;20247;-54
2022/06/03 08:01:20;;;;;;;3.20;3.00;;;21.10;1.00;;;;;;6181207;28;20240;-55
2022/06/03 08:04:28;;;;;;;2.87;2.77;;;21.00;1.00;;;;;;6183733;28;20229;-55
2022/06/03 08:10:58;;;;;;;2.77;2.67;;;21.00;1.00;;;;;;6190531;28;20323;-54
2022/06/03 08:14:03;;;;;;;3.33;2.93;;;20.90;1.00;;;;;;6193365;28;20340;-57
2022/06/03 08:17:09;;;;;;;3.47;3.10;;;20.90;1.00;;;;;;6194683;28;20240;-56
2022/06/03 08:20:14;;;;;;;2.73;2.63;;;20.80;1.00;;;;;;6192230;28;20254;-57
2022/06/03 08:23:20;;;;;;;2.97;2.87;;;20.90;1.00;;;;;;6184878;28;20894;-55
2022/06/03 08:26:27;;;;;;;3.57;3.47;;;21.00;1.00;;;;;;6192720;28;20243;-56
2022/06/03 08:29:35;;;;;;;3.33;3.23;;;20.80;1.00;;;;;;6195671;28;20232;-55
2022/06/03 08:32:41;;;;;;;3.27;3.07;;;20.70;1.00;;;;;;6188378;28;20236;-55
2022/06/03 08:35:47;;;;;;;3.73;3.43;;;20.70;1.00;;;;;;6181105;28;20331;-54
2022/06/03 08:38:56;;;;;;;3.53;3.33;;;20.80;1.00;;;;;;6176222;28;20240;-55
2022/06/03 08:42:22;;;;;;;3.30;3.20;;;21.00;1.00;;;;;;6190620;28;20714;-56
2022/06/03 08:45:40;;;;;;;4.00;3.90;;;21.30;1.00;;;;;;6191150;28;20232;-55
2022/06/03 08:48:47;;;;;;;3.80;3.50;;;21.40;1.00;;;;;;6180624;28;20240;-55
2022/06/03 08:51:57;;;;;;;2.87;2.77;;;21.50;1.00;;;;;;6188105;28;20247;-54
2022/06/03 08:55:24;;;;;;;3.43;3.17;;;21.70;1.00;;;;;;6181251;28;20235;-54
2022/06/03 08:58:39;;;;;;;3.80;3.60;;;21.90;1.00;;;;;;6177267;28;20352;-54
2022/06/03 09:01:48;;;;;;;2.93;2.83;;;21.90;1.00;;;;;;6179188;28;20277;-53
2022/06/03 09:04:59;;;;;;;3.00;2.80;;;22.00;1.00;;;;;;6192880;28;21042;-56
2022/06/03 09:08:10;;;;;;;3.33;3.17;;;22.20;1.00;;;;;;6187506;28;20654;-55
2022/06/03 09:11:20;;;;;;;2.93;2.80;;;22.10;1.00;;;;;;6188450;28;20231;-57
2022/06/03 09:14:26;;;;;;;3.57;3.30;;;22.00;1.00;;;;;;6177882;28;20242;-56
2022/06/03 09:17:39;;;;;;;3.77;3.67;;;22.20;1.00;;;;;;6184252;28;20641;-55
2022/06/03 09:20:46;;;;;;;3.50;3.30;;;22.30;1.00;;;;;;6187018;28;20362;-52
2022/06/03 09:23:54;;;;;;;3.30;3.30;;;22.30;1.00;;;;;;6189989;28;20243;-54
2022/06/03 09:27:01;;;;;;;2.93;2.80;;;22.40;1.00;;;;;;6179231;28;20250;-56
2022/06/03 09:30:07;;;;;;;3.20;3.10;;;22.50;1.00;;;;;;6185935;28;20374;-56
2022/06/03 09:33:14;;;;;;;3.20;3.10;;;22.50;1.00;;;;;;6180850;28;22253;-55
2022/06/03 09:36:19;;;;;;;3.00;2.93;;;22.50;1.00;;;;;;6171609;28;20242;-55
2022/06/03 09:39:23;;;;;;;3.17;3.00;;;22.50;1.00;;;;;;6187570;28;21106;-54
2022/06/03 09:42:30;;;;;;;2.87;2.77;;;22.40;1.00;;;;;;6193812;28;20224;-56
2022/06/03 09:45:35;;;;;;;3.30;3.10;;;22.50;1.00;;;;;;6183418;28;20280;-55
2022/06/03 09:48:39;;;;;;;2.93;2.80;;;22.40;1.00;;;;;;6193685;28;20247;-54
2022/06/03 09:51:56;;;;;;;3.33;3.23;;;22.30;1.00;;;;;;6180489;28;20321;-56
2022/06/03 09:55:06;;;;;;;3.07;2.97;;;22.40;1.00;;;;;;6179570;28;20638;-55
2022/06/03 09:58:16;;;;;;;3.60;3.40;;;22.40;1.00;;;;;;6187818;28;20474;-56
2022/06/03 10:01:20;;;;;;;3.00;2.80;;;22.50;1.00;;;;;;6191199;28;20327;-54
2022/06/03 10:04:29;;;;;;;3.13;2.93;;;22.60;1.00;;;;;;6187312;28;20259;-57
2022/06/03 10:07:32;;;;;;;2.70;2.60;;;22.60;1.00;;;;;;6187713;28;20228;-55
2022/06/03 10:13:57;;;;;;;3.23;3.23;;;22.80;1.00;;;;;;6188340;28;20231;-55
2022/06/03 10:17:00;;;;;;;2.60;2.50;;;22.90;1.00;;;;;;6195418;28;20717;-54
2022/06/03 10:20:06;;;;;;;3.07;2.70;;;22.80;1.00;;;;;;6185879;28;20254;-55
2022/06/03 10:23:10;;;;;;;3.17;3.00;;;22.80;1.00;;;;;;6180770;28;20239;-56
2022/06/03 10:26:19;;;;;;;2.90;2.80;;;22.90;1.00;;;;;;6186821;28;20259;-56
2022/06/03 10:29:25;;;;;;;2.63;2.53;;;22.90;1.00;;;;;;6183281;28;20582;-55
2022/06/03 10:32:28;;;;;;;2.40;2.40;;;22.80;1.00;;;;;;6183450;28;20240;-54
2022/06/03 10:35:34;;;;;;;2.97;2.70;;;22.90;1.00;;;;;;6183590;28;20721;-54
2022/06/03 10:38:38;;;;;;;2.63;2.63;;;23.10;1.00;;;;;;6176605;28;20616;-56
2022/06/03 10:41:43;;;;;;;3.10;3.00;;;23.20;1.00;;;;;;6190259;28;20550;-54
2022/06/03 10:44:50;;;;;;;3.07;3.07;;;23.40;1.00;;;;;;6187175;28;20472;-56
2022/06/03 10:47:56;;;;;;;3.00;3.00;;;23.20;1.00;;;;;;6190988;28;20268;-53
2022/06/03 10:51:14;;;;;;;2.90;2.90;;;23.20;1.00;;;;;;6183395;28;20263;-54
2022/06/03 11:01:24;;;;;;;2.80;2.70;;;23.40;1.00;;;;;;6176470;28;20584;-55
2022/06/03 11:04:30;;;;;;;2.80;2.60;;;23.40;1.00;;;;;;6183443;28;20592;-55
2022/06/03 11:07:34;;;;;;;2.80;2.77;;;23.60;1.00;;;;;;6181229;28;20403;-53
2022/06/03 11:10:42;;;;;;;3.17;3.07;;;23.80;1.00;;;;;;6187724;28;20232;-55
2022/06/03 11:13:48;;;;;;;2.93;2.77;;;23.90;1.00;;;;;;6194031;28;20748;-58
2022/06/03 11:16:59;;;;;;;3.03;2.93;;;23.80;1.00;;;;;;6181430;28;20248;-54
2022/06/03 11:20:05;;;;;;;3.53;3.37;;;23.80;1.00;;;;;;6188804;28;20293;-55
2022/06/03 11:23:10;;;;;;;3.23;2.97;;;23.90;1.00;;;;;;6181717;28;20389;-54
2022/06/03 11:26:13;;;;;;;2.83;2.63;;;24.00;1.00;;;;;;6186572;28;20271;-53
2022/06/03 11:29:24;;;;;;;3.17;2.93;;;23.90;1.00;;;;;;6190161;28;20274;-53
2022/06/03 11:32:31;;;;;;;3.07;3.07;;;24.00;1.00;;;;;;6187439;28;20236;-54
2022/06/03 11:35:38;;;;;;;2.27;2.27;;;24.00;1.00;;;;;;6184774;28;20904;-54
2022/06/03 11:38:48;;;;;;;6.30;2.87;;;23.90;1.00;;;;;;6187977;28;20310;-55
2022/06/03 11:41:58;;;;;;;4.87;2.90;;;23.90;1.00;;;;;;6192198;28;20228;-54
2022/06/03 11:45:08;;;;;;;3.20;3.03;;;23.90;1.00;;;;;;6188434;28;20654;-54
2022/06/03 11:48:18;;;;;;;2.70;2.60;;;24.00;1.00;;;;;;6196628;28;20248;-56
2022/06/03 11:51:21;;;;;;;2.30;2.30;;;24.00;1.00;;;;;;6187783;28;20232;-54
2022/06/03 11:54:26;;;;;;;3.00;2.90;;;24.00;1.00;;;;;;6189019;28;20243;-55
2022/06/03 11:57:29;;;;;;;3.00;2.90;;;24.10;1.00;;;;;;6198156;28;20327;-56
2022/06/03 12:00:38;;;;;;;3.00;3.00;;;24.10;1.00;;;;;;6187972;28;20371;-53
2022/06/03 12:03:51;;;;;;;2.60;2.60;;;24.10;1.00;;;;;;6186405;28;20666;-54
2022/06/03 12:07:02;;;;;;;2.90;2.90;;;24.20;1.00;;;;;;6190308;28;20522;-54
2022/06/03 12:10:13;;;;;;;2.93;2.90;;;24.20;1.00;;;;;;6188882;28;20239;-54
2022/06/03 12:13:21;;;;;;;3.17;3.07;;;24.20;1.00;;;;;;6178855;28;20232;-53
2022/06/03 12:16:24;;;;;;;2.63;2.60;;;24.30;1.00;;;;;;6185693;28;20327;-56
2022/06/03 12:19:41;;;;;;;2.80;2.80;;;24.40;1.00;;;;;;6189059;28;20614;-55
2022/06/03 12:22:45;;;;;;;2.70;2.60;;;24.40;1.00;;;;;;6195330;28;20474;-59
2022/06/03 12:26:09;;;;;;;2.93;2.93;;;24.30;1.00;;;;;;6191067;28;20240;-56
2022/06/03 12:29:22;;;;;;;3.30;3.00;;;24.40;1.00;;;;;;6186351;28;21426;-55
2022/06/03 12:32:28;;;;;;;3.30;3.10;;;24.60;1.00;;;;;;6194352;28;20231;-53
2022/06/03 12:35:53;;;;;;;3.00;2.80;;;24.70;1.00;;;;;;6178701;28;20228;-56
2022/06/03 12:39:19;;;;;;;3.33;3.03;;;24.70;1.00;;;;;;6182776;28;20236;-54
2022/06/03 12:42:40;;;;;;;2.77;2.70;;;24.70;1.00;;;;;;6188658;28;20306;-54
2022/06/03 12:45:56;;;;;;;3.33;3.20;;;24.90;1.00;;;;;;6188091;28;20248;-54
2022/06/03 12:48:59;;;;;;;3.20;3.00;;;25.10;1.00;;;;;;6193935;28;20287;-54
2022/06/03 12:52:11;;;;;;;2.63;2.63;;;25.10;1.00;;;;;;6193449;28;20304;-54
2022/06/03 12:55:24;;;;;;;2.83;2.83;;;25.10;1.00;;;;;;6190435;28;20252;-54
2022/06/03 12:58:59;;;;;;;3.07;3.00;;;25.30;1.00;;;;;;6191587;28;20352;-54
2022/06/03 13:02:08;;;;;;;2.70;2.70;;;25.40;1.00;;;;;;6155279;28;20826;-53
2022/06/03 13:05:24;;;;;;;2.57;2.57;;;25.40;1.00;;;;;;6194508;28;20357;-54
2022/06/03 13:12:17;;;;;;;4.63;2.97;;;25.60;1.00;;;;;;6184966;28;20283;-54
2022/06/03 13:15:48;;;;;;;2.57;2.47;;;25.50;1.00;;;;;;6181628;28;20236;-54
2022/06/03 13:18:53;;;;;;;2.63;2.63;;;25.50;1.00;;;;;;6190572;28;20235;-55
2022/06/03 13:22:04;;;;;;;2.43;2.43;;;25.50;1.00;;;;;;6190966;28;20604;-54
2022/06/03 13:25:31;;;;;;;3.00;2.90;;;25.60;1.00;;;;;;6191550;28;20234;-53
2022/06/03 13:28:40;;;;;;;2.47;2.47;;;25.70;1.00;;;;;;6191147;28;20375;-53
2022/06/03 13:32:01;;;;;;;2.60;2.60;;;25.80;1.00;;;;;;6192878;28;20232;-55
2022/06/03 13:35:18;;;;;;;2.50;2.50;;;25.80;1.00;;;;;;6174785;28;20327;-55
2022/06/03 13:38:27;;;;;;;2.40;2.40;;;25.90;1.00;;;;;;6177706;28;20391;-56
2022/06/03 13:45:22;;;;;;;2.53;2.50;;;25.90;1.00;;;;;;6178228;28;20246;-57
2022/06/03 13:48:32;;;;;;;3.07;2.80;;;25.90;1.00;;;;;;6187689;28;20238;-55
2022/06/03 13:51:53;;;;;;;2.67;2.57;;;25.80;1.00;;;;;;6184683;28;20382;-55
2022/06/03 13:55:05;;;;;;;2.30;2.30;;;25.90;1.00;;;;;;6180881;28;20245;-53
2022/06/03 13:58:13;;;;;;;2.70;2.43;;;25.90;1.00;;;;;;6178238;28;20526;-55
2022/06/03 14:01:26;;;;;;;2.87;2.30;;;25.90;1.00;;;;;;6188270;28;20455;-54
2022/06/03 14:04:32;;;;;;;2.03;2.03;;;26.00;1.00;;;;;;6185695;28;20767;-53
2022/06/03 14:07:39;;;;;;;2.10;2.10;;;26.10;1.00;;;;;;6190862;28;20837;-54
2022/06/03 14:10:47;;;;;;;2.63;2.53;;;26.30;1.00;;;;;;6184075;28;20840;-55
2022/06/03 14:13:57;;;;;;;3.53;2.53;;;26.40;1.00;;;;;;6187968;28;20258;-54
2022/06/03 14:17:05;;;;;;;2.20;2.10;;;26.00;1.00;;;;;;6195266;28;20374;-54
2022/06/03 14:20:13;;;;;;;1.90;1.90;;;26.00;1.00;;;;;;6182223;28;20322;-53
2022/06/03 14:23:25;;;;;;;2.53;2.43;;;26.10;1.00;;;;;;6180886;28;20334;-52
2022/06/03 14:26:34;;;;;;;2.33;2.30;;;26.20;1.00;;;;;;6190461;28;20540;-54
2022/06/03 14:29:43;;;;;;;2.03;2.03;;;26.20;1.00;;;;;;6186607;28;20714;-55
2022/06/03 14:32:49;;;;;;;2.60;2.60;;;26.20;1.00;;;;;;6188029;28;20614;-56
2022/06/03 14:35:57;;;;;;;2.50;2.30;;;26.20;1.00;;;;;;6175445;28;20409;-54
2022/06/03 14:39:06;;;;;;;2.77;2.77;;;26.10;1.00;;;;;;6173210;28;20247;-54
2022/06/03 14:42:11;;;;;;;2.07;2.07;;;26.20;1.00;;;;;;6178063;28;20235;-54
2022/06/03 14:45:16;;;;;;;2.50;2.50;;;26.40;1.00;;;;;;6181916;28;20242;-54
2022/06/03 14:48:23;;;;;;;2.40;2.40;;;26.50;1.00;;;;;;6192478;28;20949;-56
2022/06/03 14:51:35;;;;;;;2.97;2.70;;;26.60;1.00;;;;;;6187534;28;20713;-53
2022/06/03 14:54:43;;;;;;;4.23;2.30;;;26.70;1.00;;;;;;6188471;28;20224;-53
2022/06/03 14:57:51;;;;;;;2.87;2.77;;;26.70;1.00;;;;;;6193494;28;20262;-55
2022/06/03 15:01:13;;;;;;;2.53;2.43;;;26.60;1.00;;;;;;6198121;28;20278;-56
2022/06/03 15:04:22;;;;;;;2.60;2.50;;;26.50;1.00;;;;;;6191984;28;20240;-54
2022/06/03 15:07:30;;;;;;;2.60;2.60;;;26.60;1.00;;;;;;6193999;28;20236;-55
2022/06/03 15:10:34;;;;;;;2.07;2.00;;;26.70;1.00;;;;;;6201655;28;20371;-55
2022/06/03 15:13:38;;;;;;;2.20;2.10;;;26.80;1.00;;;;;;6198804;28;20235;-55
2022/06/03 15:16:56;;;;;;;3.03;2.83;;;27.00;1.00;;;;;;6187035;28;20244;-54
2022/06/03 15:20:03;;;;;;;2.87;2.77;;;27.10;1.00;;;;;;6195975;28;20227;-54
2022/06/03 15:23:07;;;;;;;2.30;2.30;;;27.20;1.00;;;;;;6180284;28;20283;-55
2022/06/03 15:26:17;;;;;;;2.47;2.47;;;27.30;1.00;;;;;;6193068;28;20323;-56
2022/06/03 15:29:22;;;;;;;2.70;2.60;;;27.20;1.00;;;;;;6180948;28;20327;-55
2022/06/03 15:32:27;;;;;;;2.20;2.20;;;27.10;1.00;;;;;;6191359;28;20307;-54
2022/06/03 15:35:31;;;;;;;2.97;2.77;;;27.10;1.00;;;;;;6183418;28;20235;-54
2022/06/03 15:38:37;;;;;;;3.03;2.83;;;27.00;1.00;;;;;;6174044;28;20347;-52
2022/06/03 15:41:43;;;;;;;2.90;2.80;;;27.00;1.00;;;;;;6175820;28;20581;-54
2022/06/03 15:44:46;;;;;;;2.90;2.80;;;27.00;1.00;;;;;;6186160;28;20298;-53
2022/06/03 15:48:01;;;;;;;2.53;2.43;;;27.00;1.00;;;;;;6191471;28;20289;-54
2022/06/03 15:51:07;;;;;;;2.80;2.70;;;26.90;1.00;;;;;;6188460;28;20236;-57
2022/06/03 15:54:23;;;;;;;2.80;2.70;;;26.80;1.00;;;;;;6190848;28;20738;-54
2022/06/03 15:57:45;;;;;;;2.50;2.40;;;26.70;1.00;;;;;;6186858;28;20294;-54
2022/06/03 16:00:55;;;;;;;2.70;2.60;;;26.70;1.00;;;;;;6157992;28;20255;-50
2022/06/03 16:04:07;;;;;;;2.63;2.53;;;26.60;1.00;;;;;;6181301;28;20240;-54
2022/06/03 16:07:24;;;;;;;2.80;2.70;;;26.50;1.00;;;;;;6187008;28;20255;-52
2022/06/03 16:10:32;;;;;;;2.33;2.23;;;26.50;1.00;;;;;;6182689;28;20327;-52
2022/06/03 16:13:49;;;;;;;2.40;2.30;;;26.40;1.00;;;;;;6188029;28;20319;-53
2022/06/03 16:17:05;;;;;;;3.00;2.90;;;26.50;1.00;;;;;;6184230;28;20545;-55
2022/06/03 16:20:12;;;;;;;2.70;2.70;;;26.30;1.00;;;;;;6182718;28;20242;-54
2022/06/03 16:23:30;;;;;;;2.87;2.67;;;26.30;1.00;;;;;;6185296;28;20841;-57
2022/06/03 16:26:38;;;;;;;4.43;4.17;;;26.20;1.00;;;;;;6195351;28;20801;-54
2022/06/03 16:29:56;;;;;;;3.00;2.90;;;26.10;1.00;;;;;;6194133;28;20534;-53
2022/06/03 16:33:03;;;;;;;3.10;3.00;;;26.10;1.00;;;;;;6186012;28;20380;-54
2022/06/03 16:36:16;;;;;;;2.90;2.80;;;26.10;1.00;;;;;;6173368;28;20238;-54
2022/06/03 16:39:24;;;;;;;2.93;2.87;;;26.00;1.00;;;;;;6179170;28;20396;-53
2022/06/03 16:42:35;;;;;;;3.20;3.10;;;25.90;1.00;;;;;;6176514;28;20876;-55
2022/06/03 16:46:10;;;;;;;3.00;2.83;;;25.90;1.00;;;;;;6185276;28;20243;-54
2022/06/03 16:49:52;;;;;;;3.23;3.20;;;25.70;1.00;;;;;;6184641;28;20291;-55
2022/06/03 16:52:59;;;;;;;2.87;2.77;;;25.70;1.00;;;;;;6182612;28;20314;-54
2022/06/03 16:56:02;;;;;;;3.00;2.90;;;25.60;1.00;;;;;;6191185;28;20869;-55
2022/06/03 16:59:15;;;;;;;3.03;2.73;;;25.60;1.00;;;;;;6180558;28;20239;-55
2022/06/03 17:02:25;;;;;;;2.70;2.60;;;25.50;1.00;;;;;;6196800;28;20231;-55
2022/06/03 17:05:28;;;;;;;3.10;2.90;;;25.40;1.00;;;;;;6188381;28;20232;-55
2022/06/03 17:08:41;;;;;;;2.90;2.70;;;25.30;1.00;;;;;;6202343;28;20717;-53
2022/06/03 17:11:45;;;;;;;2.53;2.53;;;25.10;1.00;;;;;;6191445;28;20239;-55
2022/06/03 17:14:49;;;;;;;3.43;3.07;;;25.00;1.00;;;;;;6188576;28;20237;-54
2022/06/03 17:17:53;;;;;;;3.53;3.00;;;24.90;1.00;;;;;;6186031;28;20342;-55
2022/06/03 17:21:07;;;;;;;3.47;3.30;;;24.80;1.00;;;;;;6189540;28;20281;-54
2022/06/03 17:24:25;;;;;;;3.27;3.07;;;24.70;1.00;;;;;;6189617;28;20553;-53
2022/06/03 17:27:42;;;;;;;5.30;3.90;;;24.50;1.00;;;;;;6190971;28;20727;-55
2022/06/03 17:30:56;;;;;;;4.87;3.30;;;24.30;1.00;;;;;;6192301;28;20323;-54
2022/06/03 17:34:49;;;;;;;3.90;2.70;;;24.30;1.00;;;;;;6181007;28;20232;-55
2022/06/03 17:38:04;;;;;;;3.03;3.03;;;24.30;1.00;;;;;;6152541;28;20362;-54
2022/06/03 17:41:15;;;;;;;3.10;2.90;;;24.20;1.00;;;;;;6174889;28;20376;-55